Terminal Aerodrome Forecast
Issued by NWS

Home | Current Version | Previous Version | Text Only | Print | Product List | Glossary On
Versions: 1 2 3 4 5 6 7 8 9 10 11 12 13 14 15 16 17 18 19 20 21 22 23 24 25 26 27 28 29 30 31 32 33 34 35 36 37 38 39 40 41
000
FTAK31 PAFA 262337
TAFAOM
TAF
PAOM 262337Z 2700/2724 23017KT P6SM -SN OVC050
     FM270300 22009KT 4SM -SN BR OVC015
     FM270600 20007KT 2SM -SN BR OVC025
     FM271000 24006KT P6SM -SN OVC025
     FM271200 25007KT P6SM VCSH BKN050=

USA.gov is the U.S. government's official web portal to all federal, state and local government web resources and services.